createdAt,value
2023-02-03T00:01:32.043Z,1.90
2023-02-03T00:04:00.194Z,1.80
2023-02-03T00:06:28.891Z,2.40
2023-02-03T00:08:59.545Z,2.27
2023-02-03T00:11:28.258Z,2.83
2023-02-03T00:13:56.402Z,2.07
2023-02-03T00:16:26.063Z,2.70
2023-02-03T00:18:54.232Z,2.97
2023-02-03T00:21:22.419Z,2.77
2023-02-03T00:23:50.579Z,3.77
2023-02-03T00:26:19.154Z,2.70
2023-02-03T00:28:47.904Z,2.90
2023-02-03T00:31:17.431Z,3.10
2023-02-03T00:33:47.042Z,3.07
2023-02-03T00:36:15.728Z,3.27
2023-02-03T00:38:43.961Z,3.60
2023-02-03T00:41:12.215Z,3.23
2023-02-03T00:43:40.280Z,3.67
2023-02-03T00:46:08.402Z,3.43
2023-02-03T00:48:36.604Z,3.50
2023-02-03T00:51:06.651Z,3.77
2023-02-03T00:53:34.995Z,3.90
2023-02-03T00:56:03.150Z,3.50
2023-02-03T00:58:31.288Z,3.93
2023-02-03T01:00:59.521Z,3.73
2023-02-03T01:03:28.034Z,3.20
2023-02-03T01:05:56.575Z,4.40
2023-02-03T01:08:26.413Z,3.73
2023-02-03T01:10:54.428Z,3.10
2023-02-03T01:13:22.472Z,3.90
2023-02-03T01:15:50.493Z,4.67
2023-02-03T01:18:18.528Z,3.60
2023-02-03T01:20:46.599Z,3.93
2023-02-03T01:23:14.691Z,3.70
2023-02-03T01:25:44.094Z,3.90
2023-02-03T01:28:12.330Z,3.60
2023-02-03T01:30:40.480Z,3.70
2023-02-03T01:33:08.543Z,3.97
2023-02-03T01:35:36.596Z,4.00
2023-02-03T01:38:04.620Z,4.00
2023-02-03T01:40:32.675Z,2.80
2023-02-03T01:43:02.085Z,3.40
2023-02-03T01:45:30.333Z,3.40
2023-02-03T01:48:00.562Z,4.10
2023-02-03T01:50:32.135Z,3.27
2023-02-03T01:53:03.931Z,3.30
2023-02-03T01:55:37.192Z,3.77
2023-02-03T01:58:12.001Z,3.10
2023-02-03T02:00:40.594Z,3.50
2023-02-03T02:03:10.224Z,3.40
2023-02-03T02:05:42.707Z,3.70
2023-02-03T02:08:11.393Z,3.00
2023-02-03T02:10:39.730Z,2.70
2023-02-03T02:13:09.684Z,2.67
2023-02-03T02:15:47.920Z,2.70
2023-02-03T02:18:29.158Z,2.83
2023-02-03T02:21:25.210Z,3.10
2023-02-03T02:24:38.841Z,3.50
2023-02-03T02:27:19.842Z,2.67
2023-02-03T02:30:12.618Z,2.87
2023-02-03T02:32:54.704Z,2.67
2023-02-03T02:35:33.455Z,2.70
2023-02-03T02:38:05.622Z,2.60
2023-02-03T02:40:38.965Z,2.37
2023-02-03T02:43:11.626Z,2.37
2023-02-03T02:45:47.295Z,2.70
2023-02-03T02:48:24.438Z,2.30
2023-02-03T02:50:56.355Z,1.80
2023-02-03T02:53:27.204Z,2.17
2023-02-03T02:55:57.416Z,1.93
2023-02-03T02:58:27.860Z,2.10
2023-02-03T03:00:56.803Z,1.90
2023-02-03T03:03:26.498Z,1.60
2023-02-03T03:05:57.291Z,1.50
2023-02-03T03:08:30.421Z,1.80
2023-02-03T03:11:00.059Z,1.90
2023-02-03T03:13:32.963Z,1.60
2023-02-03T03:16:04.110Z,1.60
2023-02-03T03:18:38.646Z,1.47
2023-02-03T03:21:08.039Z,2.00
2023-02-03T03:23:42.419Z,1.67
2023-02-03T03:26:15.360Z,1.77
2023-02-03T03:28:49.189Z,1.87
2023-02-03T03:31:18.914Z,1.80
2023-02-03T03:33:49.358Z,1.70
2023-02-03T03:36:25.977Z,1.50
2023-02-03T03:38:58.793Z,1.53
2023-02-03T03:41:37.769Z,1.30
2023-02-03T03:44:10.506Z,1.30
2023-02-03T03:46:44.279Z,1.50
2023-02-03T03:49:15.114Z,1.73
2023-02-03T03:51:48.160Z,1.63
2023-02-03T03:54:19.780Z,1.30
2023-02-03T03:56:54.105Z,1.60
2023-02-03T03:59:25.921Z,1.43
2023-02-03T04:01:54.246Z,1.50
2023-02-03T04:04:26.878Z,1.40
2023-02-03T04:06:55.720Z,1.40
2023-02-03T04:09:23.748Z,1.40
2023-02-03T04:12:05.805Z,1.40
2023-02-03T04:14:35.767Z,1.70
2023-02-03T04:17:03.827Z,1.40
2023-02-03T04:19:33.621Z,1.40
2023-02-03T04:22:01.702Z,1.60
2023-02-03T04:24:29.766Z,1.50
2023-02-03T04:26:57.782Z,1.70
2023-02-03T04:29:25.818Z,1.60
2023-02-03T04:31:53.893Z,1.70
2023-02-03T04:34:21.975Z,2.07
2023-02-03T04:36:51.359Z,2.23
2023-02-03T04:39:19.383Z,2.00
2023-02-03T04:41:47.378Z,2.20
2023-02-03T04:44:15.407Z,2.23
2023-02-03T04:46:43.397Z,2.60
2023-02-03T04:49:12.213Z,3.40
2023-02-03T04:51:40.246Z,2.87
2023-02-03T04:54:09.863Z,3.70
2023-02-03T04:56:38.076Z,4.00
2023-02-03T04:59:06.289Z,4.00
2023-02-03T05:01:34.265Z,4.37
2023-02-03T05:04:02.295Z,4.93
2023-02-03T05:06:32.139Z,5.27
2023-02-03T05:09:00.261Z,5.73
2023-02-03T05:11:29.969Z,5.27
2023-02-03T05:13:58.031Z,5.83
2023-02-03T05:16:26.505Z,6.03
2023-02-03T05:18:54.529Z,7.20
2023-02-03T05:21:22.595Z,8.27
2023-02-03T05:23:50.636Z,7.47
2023-02-03T05:26:18.650Z,8.37
2023-02-03T05:28:48.142Z,7.40
2023-02-03T05:31:16.232Z,9.03
2023-02-03T05:33:44.307Z,8.23
2023-02-03T05:36:12.328Z,8.10
2023-02-03T05:38:42.003Z,8.70
2023-02-03T05:41:29.088Z,8.97
2023-02-03T05:43:58.603Z,8.40
2023-02-03T05:46:26.625Z,9.37
2023-02-03T05:48:54.603Z,9.73
2023-02-03T05:51:22.663Z,9.20
2023-02-03T05:53:50.646Z,9.77
2023-02-03T05:56:18.661Z,10.00
2023-02-03T05:58:46.643Z,10.30
2023-02-03T06:01:16.011Z,9.30
2023-02-03T06:03:46.217Z,10.07
2023-02-03T06:06:14.750Z,10.60
2023-02-03T06:08:42.883Z,10.57
2023-02-03T06:11:11.482Z,10.20
2023-02-03T06:13:39.478Z,10.70
2023-02-03T06:16:07.812Z,9.63
2023-02-03T06:18:37.245Z,10.53
2023-02-03T06:21:05.504Z,10.67
2023-02-03T06:23:33.653Z,11.17
2023-02-03T06:26:01.885Z,11.40
2023-02-03T06:28:30.250Z,11.20
2023-02-03T06:30:58.374Z,11.23
2023-02-03T06:33:26.503Z,11.47
2023-02-03T06:35:56.504Z,9.83
2023-02-03T06:38:24.824Z,11.77
2023-02-03T06:40:52.888Z,11.30
2023-02-03T06:43:20.876Z,11.77
2023-02-03T06:45:49.070Z,10.93
2023-02-03T06:48:17.350Z,11.20
2023-02-03T06:50:48.625Z,11.40
2023-02-03T06:53:18.458Z,11.03
2023-02-03T06:55:47.917Z,11.00
2023-02-03T06:58:16.328Z,10.73
2023-02-03T07:00:44.522Z,10.80
2023-02-03T07:03:12.542Z,11.13
2023-02-03T07:05:40.890Z,10.53
2023-02-03T07:08:08.966Z,10.60
2023-02-03T07:10:38.355Z,10.93
2023-02-03T07:13:07.469Z,11.53
2023-02-03T07:15:36.523Z,9.97
2023-02-03T07:18:04.674Z,10.07
2023-02-03T07:20:33.032Z,10.73
2023-02-03T07:23:01.127Z,10.97
2023-02-03T07:25:30.504Z,11.27
2023-02-03T07:27:59.965Z,10.50
2023-02-03T07:30:28.312Z,10.33
2023-02-03T07:32:56.487Z,12.93
2023-02-03T07:35:24.477Z,10.70
2023-02-03T07:37:52.511Z,9.93
2023-02-03T07:40:21.289Z,11.07
2023-02-03T07:42:50.196Z,11.47
2023-02-03T07:45:20.274Z,10.77
2023-02-03T07:47:48.259Z,11.63
2023-02-03T07:50:16.327Z,9.53
2023-02-03T07:52:44.328Z,10.63
2023-02-03T07:55:12.326Z,10.63
2023-02-03T07:57:43.594Z,10.27
2023-02-03T08:00:13.999Z,11.03
2023-02-03T08:02:43.924Z,11.63
2023-02-03T08:05:13.199Z,9.20
2023-02-03T08:07:41.963Z,11.20
2023-02-03T08:10:11.242Z,11.43
2023-02-03T08:12:39.411Z,11.27
2023-02-03T08:15:08.615Z,9.37
2023-02-03T08:17:36.611Z,11.50
2023-02-03T08:20:07.165Z,10.63
2023-02-03T08:22:35.165Z,11.03
2023-02-03T08:25:03.894Z,10.63
2023-02-03T08:27:33.779Z,11.50
2023-02-03T08:30:02.059Z,10.53
2023-02-03T08:32:30.066Z,10.37
2023-02-03T08:34:58.051Z,11.47
2023-02-03T08:37:28.289Z,9.77
2023-02-03T08:39:56.346Z,9.30
2023-02-03T08:42:24.325Z,10.80
2023-02-03T08:44:52.296Z,9.57
2023-02-03T08:47:20.303Z,10.97
2023-02-03T08:49:48.329Z,11.13
2023-02-03T08:52:18.804Z,10.77
2023-02-03T08:54:48.614Z,10.00
2023-02-03T08:57:16.698Z,10.10
2023-02-03T08:59:45.230Z,9.87
2023-02-03T09:02:16.583Z,11.10
2023-02-03T09:04:45.225Z,11.03
2023-02-03T09:07:13.414Z,9.43
2023-02-03T09:09:41.452Z,10.17
2023-02-03T09:12:12.372Z,11.33
2023-02-03T09:14:40.373Z,12.20
2023-02-03T09:17:09.218Z,10.40
2023-02-03T09:19:37.634Z,10.33
2023-02-03T09:22:05.779Z,10.27
2023-02-03T09:24:34.096Z,11.03
2023-02-03T09:27:02.167Z,10.57
2023-02-03T09:29:31.495Z,10.00
2023-02-03T09:32:00.168Z,9.83
2023-02-03T09:34:28.919Z,10.07
2023-02-03T09:36:56.907Z,10.53
2023-02-03T09:39:24.896Z,9.73
2023-02-03T09:42:06.856Z,9.73
2023-02-03T09:44:43.922Z,8.87
2023-02-03T09:47:15.527Z,10.33
2023-02-03T09:49:48.212Z,8.70
2023-02-03T09:52:20.383Z,10.20
2023-02-03T09:54:55.879Z,8.90
2023-02-03T09:57:25.652Z,8.47
2023-02-03T09:59:58.161Z,8.70
2023-02-03T10:02:39.878Z,8.00
2023-02-03T10:05:19.154Z,8.57
2023-02-03T10:07:57.791Z,8.10
2023-02-03T10:10:38.969Z,8.53
2023-02-03T10:13:21.549Z,7.53
2023-02-03T10:16:12.397Z,8.63
2023-02-03T10:18:46.600Z,9.47
2023-02-03T10:21:20.745Z,9.90
2023-02-03T10:23:51.184Z,8.50
2023-02-03T10:26:23.525Z,8.73
2023-02-03T10:28:56.006Z,8.43
2023-02-03T10:31:28.301Z,7.60
2023-02-03T10:34:01.775Z,7.53
2023-02-03T10:36:42.723Z,8.13
2023-02-03T10:39:20.103Z,7.97
2023-02-03T10:41:48.527Z,7.93
2023-02-03T10:44:16.764Z,7.43
2023-02-03T10:46:46.669Z,7.70
2023-02-03T10:49:16.408Z,8.03
2023-02-03T10:51:50.821Z,7.43
2023-02-03T10:54:29.268Z,7.50
2023-02-03T10:57:02.742Z,6.30
2023-02-03T10:59:32.511Z,6.30
2023-02-03T11:02:07.737Z,6.03
2023-02-03T11:04:36.013Z,4.80
2023-02-03T11:07:06.219Z,6.20
2023-02-03T11:09:37.229Z,5.53
2023-02-03T11:12:13.196Z,5.03
2023-02-03T11:14:44.116Z,4.77
2023-02-03T11:17:18.219Z,4.00
2023-02-03T11:19:48.469Z,4.50
2023-02-03T11:22:29.297Z,2.77
2023-02-03T11:24:58.628Z,2.63
2023-02-03T11:27:30.927Z,3.27
2023-02-03T11:30:15.187Z,3.57
2023-02-03T11:32:46.637Z,3.47
2023-02-03T11:35:18.575Z,3.77
2023-02-03T11:37:48.424Z,3.23
2023-02-03T11:40:27.718Z,2.67
2023-02-03T11:43:05.687Z,3.10
2023-02-03T11:45:41.816Z,3.00
2023-02-03T11:48:23.984Z,3.33
2023-02-03T11:51:01.112Z,3.00
2023-02-03T11:53:42.304Z,1.97
2023-02-03T11:56:31.843Z,0.80
2023-02-03T11:59:32.683Z,0.70
2023-02-03T12:02:41.532Z,0.80
2023-02-03T12:05:34.242Z,0.30
2023-02-03T12:08:11.507Z,1.03
2023-02-03T12:10:53.443Z,0.83
2023-02-03T12:13:38.972Z,1.27
2023-02-03T12:16:22.680Z,0.90
2023-02-03T12:19:02.445Z,0.97
2023-02-03T12:21:44.364Z,1.40
2023-02-03T12:24:25.330Z,1.00
2023-02-03T14:04:54.641Z,2.00
2023-02-03T14:07:33.359Z,2.00
2023-02-03T14:10:17.599Z,1.50
2023-02-03T14:13:00.189Z,1.87
2023-02-03T14:15:36.544Z,1.87
2023-02-03T14:18:33.636Z,1.50
2023-02-03T14:21:25.457Z,1.77
2023-02-03T14:24:03.407Z,1.43
2023-02-03T14:26:42.248Z,1.70
2023-02-03T14:29:12.316Z,1.53
2023-02-03T14:32:05.271Z,1.83
2023-02-03T14:34:36.659Z,1.40
2023-02-03T14:37:16.339Z,2.00
2023-02-03T14:40:13.723Z,3.00
2023-02-03T14:43:23.913Z,1.50
2023-02-03T14:46:17.682Z,1.63
2023-02-03T14:48:53.850Z,1.90
2023-02-03T14:51:36.075Z,1.90
2023-02-03T14:54:25.830Z,1.87
2023-02-03T14:57:19.648Z,2.70
2023-02-03T14:59:50.118Z,2.53
2023-02-03T15:02:23.091Z,2.53
2023-02-03T15:04:52.661Z,2.67
2023-02-03T15:07:44.762Z,3.00
2023-02-03T15:10:19.797Z,2.33
2023-02-03T15:12:50.168Z,2.47
2023-02-03T15:15:23.222Z,2.57
2023-02-03T15:17:52.255Z,2.60
2023-02-03T15:20:34.079Z,3.00
2023-02-03T15:23:03.044Z,2.70
2023-02-03T15:25:33.129Z,2.83
2023-02-03T15:28:16.952Z,3.00
2023-02-03T15:30:46.104Z,2.13
2023-02-03T15:33:17.877Z,2.93
2023-02-03T15:35:48.094Z,2.80
2023-02-03T15:38:21.628Z,2.47
2023-02-03T15:40:54.599Z,2.83
2023-02-03T15:43:25.825Z,3.37
2023-02-03T15:46:04.015Z,3.03
2023-02-03T15:48:36.879Z,2.53
2023-02-03T15:51:12.387Z,3.30
2023-02-03T15:53:49.550Z,2.97
2023-02-03T15:56:26.475Z,3.00
2023-02-03T15:58:55.104Z,3.23
2023-02-03T16:01:26.556Z,3.13
2023-02-03T16:03:56.543Z,2.87
2023-02-03T16:06:27.820Z,2.50
2023-02-03T16:08:56.841Z,2.37
2023-02-03T16:11:29.166Z,2.60
2023-02-03T16:13:59.695Z,3.43
2023-02-03T16:16:30.773Z,2.43
2023-02-03T16:19:01.635Z,3.03
2023-02-03T16:21:35.976Z,2.50
2023-02-03T16:24:05.325Z,3.40
2023-02-03T16:26:36.692Z,3.50
2023-02-03T16:29:31.643Z,2.97
2023-02-03T16:32:17.643Z,2.30
2023-02-03T16:35:03.350Z,2.73
2023-02-03T16:37:50.559Z,3.13
2023-02-03T16:40:39.130Z,2.87
2023-02-03T16:43:30.893Z,3.73
2023-02-03T16:46:17.938Z,2.87
2023-02-03T16:49:03.566Z,2.63
2023-02-03T16:51:39.544Z,2.40
2023-02-03T16:54:08.175Z,3.17
2023-02-03T16:56:36.146Z,2.50
2023-02-03T16:59:05.462Z,2.50
2023-02-03T17:01:33.437Z,3.40
2023-02-03T17:04:01.391Z,2.23
2023-02-03T17:06:29.843Z,3.10
2023-02-03T17:08:59.009Z,3.07
2023-02-03T17:11:27.270Z,2.27
2023-02-03T17:13:55.243Z,4.00
2023-02-03T17:16:26.811Z,2.70
2023-02-03T17:18:55.423Z,2.33
2023-02-03T17:21:25.377Z,2.03
2023-02-03T17:23:53.650Z,2.20
2023-02-03T17:26:21.698Z,2.40
2023-02-03T17:28:49.685Z,2.70
2023-02-03T17:31:19.847Z,2.40
2023-02-03T17:33:52.233Z,2.53
2023-02-03T17:36:21.674Z,2.63
2023-02-03T17:55:28.339Z,2.23
2023-02-03T17:57:57.015Z,2.60
2023-02-03T18:00:25.143Z,2.20
2023-02-03T18:02:53.547Z,2.70
2023-02-03T18:05:22.877Z,2.77
2023-02-03T18:07:50.841Z,2.43
2023-02-03T18:10:19.293Z,2.97
2023-02-03T18:12:47.506Z,3.30
2023-02-03T18:15:15.484Z,2.40
2023-02-03T18:17:43.508Z,2.37
2023-02-03T18:20:13.539Z,2.63
2023-02-03T18:22:44.919Z,2.10
2023-02-03T18:25:16.760Z,2.13
2023-02-03T18:27:44.955Z,3.10
2023-02-03T18:30:14.942Z,2.43
2023-02-03T18:32:42.928Z,2.77
2023-02-03T18:35:16.701Z,2.13
2023-02-03T18:37:46.084Z,2.17
2023-02-03T18:40:14.442Z,2.50
2023-02-03T18:42:42.456Z,2.90
2023-02-03T18:45:11.330Z,3.00
2023-02-03T18:47:39.404Z,2.90
2023-02-03T18:50:08.043Z,3.23
2023-02-03T18:52:36.069Z,2.97
2023-02-03T18:55:05.637Z,2.87
2023-02-03T18:57:33.615Z,2.50
2023-02-03T19:00:02.462Z,2.47
2023-02-03T19:02:30.545Z,3.63
2023-02-03T19:04:58.657Z,2.70
2023-02-03T19:07:27.699Z,3.63
2023-02-03T19:09:55.756Z,2.70
2023-02-03T19:12:26.281Z,2.83
2023-02-03T19:14:54.270Z,2.03
2023-02-03T19:17:23.450Z,2.23
2023-02-03T19:19:51.431Z,2.47
2023-02-03T19:22:19.480Z,2.90
2023-02-03T19:24:47.497Z,3.23
2023-02-03T19:27:15.469Z,2.80
2023-02-03T19:29:44.876Z,2.23
2023-02-03T19:32:13.392Z,2.37
2023-02-03T19:34:41.462Z,2.70
2023-02-03T19:37:09.990Z,2.63
2023-02-03T19:39:39.360Z,1.90
2023-02-03T19:42:07.403Z,2.43
2023-02-03T19:44:37.011Z,1.73
2023-02-03T19:47:06.554Z,2.23
2023-02-03T19:49:34.799Z,2.23
2023-02-03T19:52:02.792Z,2.43
2023-02-03T19:54:30.840Z,2.17
2023-02-03T19:56:58.824Z,2.17
2023-02-03T19:59:26.795Z,2.47
2023-02-03T20:01:56.622Z,1.73
2023-02-03T20:04:27.713Z,1.87
2023-02-03T20:09:34.960Z,1.30
2023-02-03T20:12:02.924Z,1.83
2023-02-03T20:14:32.644Z,2.07
2023-02-03T20:17:00.699Z,2.50
2023-02-03T20:19:30.268Z,2.40
2023-02-03T20:21:58.232Z,1.70
2023-02-03T20:24:26.221Z,1.50
2023-02-03T20:26:54.200Z,1.70
2023-02-03T20:29:22.180Z,1.83
2023-02-03T20:31:51.752Z,1.77
2023-02-03T20:34:20.961Z,2.50
2023-02-03T20:36:50.577Z,1.70
2023-02-03T20:39:20.762Z,1.70
2023-02-03T20:41:49.887Z,1.40
2023-02-03T20:44:18.526Z,2.03
2023-02-03T20:46:46.702Z,2.30
2023-02-03T20:49:17.055Z,1.50
2023-02-03T20:51:45.240Z,1.53
2023-02-03T20:54:17.997Z,1.27
2023-02-03T20:56:46.433Z,2.43
2023-02-03T20:59:16.872Z,1.57
2023-02-03T21:01:46.895Z,1.47
2023-02-03T21:04:33.266Z,1.80
2023-02-03T21:07:02.183Z,1.63
2023-02-03T21:09:31.607Z,1.00
2023-02-03T21:11:59.628Z,1.40
2023-02-03T21:14:35.179Z,1.97
2023-02-03T21:17:03.210Z,1.87
2023-02-03T21:19:34.299Z,1.60
2023-02-03T21:22:16.103Z,1.67
2023-02-03T21:24:50.310Z,1.47
2023-02-03T21:27:29.824Z,1.50
2023-02-03T21:29:58.563Z,1.07
2023-02-03T21:32:32.392Z,1.20
2023-02-03T21:35:00.437Z,1.17
2023-02-03T21:37:41.322Z,2.03
2023-02-03T21:40:21.615Z,1.50
2023-02-03T21:42:49.743Z,2.17
2023-02-03T21:45:42.130Z,1.30
2023-02-03T21:48:30.944Z,1.97
2023-02-03T21:51:03.035Z,1.93
2023-02-03T21:53:35.595Z,1.43
2023-02-03T21:56:18.583Z,1.73
2023-02-03T21:58:48.593Z,1.10
2023-02-03T22:01:19.887Z,1.70
2023-02-03T22:03:52.713Z,1.10
2023-02-03T22:06:28.896Z,1.20
2023-02-03T22:08:58.324Z,1.23
2023-02-03T22:11:30.199Z,1.27
2023-02-03T22:14:00.801Z,1.47
2023-02-03T22:16:29.771Z,1.47
2023-02-03T22:18:57.931Z,1.37
2023-02-03T22:21:26.512Z,0.93
2023-02-03T22:23:54.566Z,1.10
2023-02-03T22:26:23.185Z,0.70
2023-02-03T22:28:52.849Z,0.70
2023-02-03T22:31:21.298Z,0.60
2023-02-03T22:33:49.754Z,0.23
2023-02-03T22:36:17.856Z,0.90
2023-02-03T22:38:45.878Z,0.30
2023-02-03T22:41:13.962Z,0.20
2023-02-03T22:43:42.535Z,0.47
2023-02-03T22:46:12.563Z,0.50
2023-02-03T22:48:40.637Z,0.40
2023-02-03T22:51:08.741Z,0.43
2023-02-03T22:53:36.922Z,0.40
2023-02-03T22:56:05.159Z,0.30
2023-02-03T22:58:33.203Z,0.50
2023-02-03T23:01:01.184Z,0.57
2023-02-03T23:03:32.669Z,0.20
2023-02-03T23:06:00.953Z,0.27
2023-02-03T23:08:28.997Z,0.10
2023-02-03T23:10:57.115Z,0.47
2023-02-03T23:13:25.223Z,0.40
2023-02-03T23:15:53.295Z,0.50
2023-02-03T23:18:21.359Z,0.30
2023-02-03T23:20:50.732Z,0.47
2023-02-03T23:23:18.783Z,0.40
2023-02-03T23:25:46.825Z,0.47
2023-02-03T23:28:14.853Z,0.57
2023-02-03T23:30:43.007Z,0.50
2023-02-03T23:33:11.171Z,0.50
2023-02-03T23:35:47.020Z,0.53
2023-02-03T23:38:17.307Z,0.40
2023-02-03T23:40:45.819Z,0.50
2023-02-03T23:43:13.916Z,0.40
2023-02-03T23:45:42.322Z,0.50
2023-02-03T23:48:10.381Z,0.60
2023-02-03T23:50:38.534Z,0.60
2023-02-03T23:53:06.872Z,0.80
2023-02-03T23:55:36.561Z,0.40
2023-02-03T23:58:05.741Z,0.80
